Time;durP1;ratioP1;P1;durP2;ratioP2;P2;SDS_P1;SDS_P2;PMS_P1;PMS_P2;Temp;Humidity;BMP_temperature;BMP_pressure;BME280_temperature;BME280_humidity;BME280_pressure;Samples;Min_cycle;Max_cycle;Signal;HPM_P1;HPM_P2
2022/02/03 00:00:18;;;;;;;21.40;14.95;;;;;;;2.03;98.15;99280.63;1732115;83;21346;-79
2022/02/03 00:03:30;;;;;;;20.35;13.65;;;;;;;1.99;98.42;99283.27;1732020;83;21848;-78
2022/02/03 00:06:44;;;;;;;20.52;14.35;;;;;;;2.00;98.78;99272.32;1758452;81;21228;-78
2022/02/03 00:23:38;;;;;;;20.48;14.73;;;;;;;1.84;99.14;99268.05;1745418;82;21380;-78
2022/02/03 00:26:14;;;;;;;21.45;14.58;;;;;;;1.82;99.37;99265.98;1746871;82;21335;-78
2022/02/03 00:29:45;;;;;;;18.42;13.80;;;;;;;1.85;99.62;99270.25;1746912;82;21203;-78
2022/02/03 00:32:47;;;;;;;20.88;15.60;;;;;;;1.87;99.70;99266.89;1726855;82;21916;-78
2022/02/03 00:36:19;;;;;;;20.82;14.55;;;;;;;1.90;99.73;99262.57;1747076;82;21927;-79
2022/02/03 00:49:29;;;;;;;25.00;16.07;;;;;;;1.81;100.00;99262.09;1746697;82;21559;-78
2022/02/03 00:52:34;;;;;;;25.35;18.23;;;;;;;1.84;100.00;99255.08;1719822;82;21373;-78
2022/02/03 00:55:44;;;;;;;25.77;17.87;;;;;;;1.85;100.00;99256.77;1746519;82;21310;-78
2022/02/03 00:59:05;;;;;;;27.35;18.12;;;;;;;1.87;100.00;99252.91;1737451;81;21853;-79
2022/02/03 01:02:14;;;;;;;23.70;16.15;;;;;;;1.88;100.00;99249.71;1760695;81;21187;-78
2022/02/03 01:05:19;;;;;;;24.18;17.12;;;;;;;1.92;100.00;99252.47;1755870;81;21188;-78
2022/02/03 01:08:24;;;;;;;22.90;15.72;;;;;;;1.88;99.67;99251.06;1755339;81;21702;-79
2022/02/03 01:11:42;;;;;;;33.78;24.87;;;;;;;1.76;99.58;99255.30;1756590;81;21192;-79
2022/02/03 01:14:51;;;;;;;21.87;14.73;;;;;;;1.71;99.85;99255.38;1731226;83;21294;-78
2022/02/03 01:18:06;;;;;;;25.48;17.00;;;;;;;1.68;100.00;99244.38;1731476;83;21337;-78
2022/02/03 01:44:43;;;;;;;22.87;16.23;;;;;;;1.68;100.00;99243.03;1760330;81;21641;-78
2022/02/03 01:54:12;;;;;;;21.68;14.40;;;;;;;1.64;100.00;99251.05;1729440;83;21224;-78
2022/02/03 01:57:21;;;;;;;19.70;14.00;;;;;;;1.62;100.00;99255.75;1732255;80;21309;-78
2022/02/03 02:00:27;;;;;;;19.07;13.10;;;;;;;1.66;100.00;99246.38;1745795;82;21289;-79
2022/02/03 02:03:49;;;;;;;19.35;13.45;;;;;;;1.62;100.00;99247.66;1745291;82;21329;-78
2022/02/03 02:07:23;;;;;;;20.68;14.47;;;;;;;1.55;100.00;99245.18;1744951;82;21592;-79
2022/02/03 02:45:21;;;;;;;23.83;15.63;;;;;;;1.44;100.00;99248.89;1732852;82;21301;-78
2022/02/03 02:48:55;;;;;;;24.02;15.25;;;;;;;1.50;100.00;99250.16;1732456;82;21860;-79
2022/02/03 02:52:09;;;;;;;24.98;15.38;;;;;;;1.57;100.00;99255.34;1733245;82;21341;-79
2022/02/03 02:55:50;;;;;;;21.48;14.90;;;;;;;1.62;100.00;99249.02;1734568;82;21301;-79
2022/02/03 03:02:14;;;;;;;22.45;14.25;;;;;;;1.63;100.00;99253.41;1756638;81;21239;-79
2022/02/03 03:29:11;;;;;;;16.10;11.63;;;;;;;1.64;100.00;99267.73;1763160;81;21211;-80
2022/02/03 03:32:36;;;;;;;13.98;9.28;;;;;;;1.69;100.00;99266.29;1764170;81;21881;-79
2022/02/03 03:35:44;;;;;;;19.25;11.20;;;;;;;1.70;100.00;99268.02;1764614;81;21163;-78
2022/02/03 03:38:48;;;;;;;18.00;11.55;;;;;;;1.71;100.00;99270.21;1794847;80;21833;-79
2022/02/03 03:41:54;;;;;;;15.35;10.82;;;;;;;1.74;100.00;99278.86;1764424;80;21339;-78
2022/02/03 03:44:59;;;;;;;13.15;9.70;;;;;;;1.79;100.00;99280.62;1704936;84;21353;-78
2022/02/03 03:48:11;;;;;;;14.05;10.43;;;;;;;1.77;100.00;99285.30;1710574;83;21659;-80
2022/02/03 03:51:17;;;;;;;14.38;10.35;;;;;;;1.73;100.00;99283.87;1705122;84;21199;-80
2022/02/03 03:54:50;;;;;;;16.35;12.60;;;;;;;1.75;100.00;99285.95;1705149;83;21357;-80
2022/02/03 03:57:58;;;;;;;13.95;10.65;;;;;;;1.77;100.00;99285.80;1712894;82;21358;-79
2022/02/03 04:45:57;;;;;;;18.77;13.25;;;;;;;1.81;100.00;99330.35;1761552;81;21204;-78
2022/02/03 04:59:52;;;;;;;20.25;14.87;;;;;;;1.70;100.00;99331.37;1755769;81;20683;-78
2022/02/03 05:07:14;;;;;;;17.37;11.10;;;;;;;1.82;100.00;99333.39;1755296;81;21757;-79
2022/02/03 05:14:38;;;;;;;13.20;10.05;;;;;;;1.94;100.00;99346.23;1757153;81;21252;-79
2022/02/03 05:18:27;;;;;;;13.08;10.50;;;;;;;2.00;99.79;99341.60;1760140;81;21200;-79
2022/02/03 05:25:31;;;;;;;13.45;10.45;;;;;;;2.04;99.15;99368.64;1761647;81;21290;-79
2022/02/03 05:33:11;;;;;;;17.50;11.08;;;;;;;2.00;98.80;99366.73;1746386;82;21191;-78
2022/02/03 05:43:45;;;;;;;19.73;12.70;;;;;;;2.35;98.55;99378.70;1757485;81;21622;-78
2022/02/03 05:50:23;;;;;;;18.15;11.65;;;;;;;2.44;97.27;99379.67;1739498;81;21381;-78
2022/02/03 06:03:51;;;;;;;17.32;10.85;;;;;;;2.46;96.28;99391.19;1758958;81;21249;-80
2022/02/03 06:13:40;;;;;;;15.15;10.78;;;;;;;2.63;95.77;99376.91;1757459;80;21273;-80
2022/02/03 06:16:48;;;;;;;13.78;10.70;;;;;;;2.69;95.31;99369.58;1759845;80;21318;-79
2022/02/03 06:23:13;;;;;;;16.97;12.63;;;;;;;2.77;94.60;99372.36;1742761;80;21789;-79
2022/02/03 06:29:45;;;;;;;17.45;13.00;;;;;;;2.67;94.11;99375.61;1755363;80;21191;-79
2022/02/03 06:32:49;;;;;;;17.87;13.05;;;;;;;2.66;94.05;99373.06;1758452;81;21856;-80
2022/02/03 06:35:57;;;;;;;18.67;13.10;;;;;;;2.67;94.05;99373.41;1753725;80;21563;-80
2022/02/03 06:39:02;;;;;;;16.42;12.23;;;;;;;2.67;94.05;99381.01;1749018;80;21273;-80
2022/02/03 06:42:09;;;;;;;16.25;11.97;;;;;;;2.73;94.06;99373.69;1773807;80;21365;-80
2022/02/03 06:45:19;;;;;;;17.70;11.48;;;;;;;2.78;93.96;99377.30;1761620;81;21271;-79
2022/02/03 06:48:23;;;;;;;16.27;11.97;;;;;;;2.85;93.87;99378.38;1754281;81;21319;-79
2022/02/03 06:51:33;;;;;;;15.88;11.12;;;;;;;2.89;93.47;99373.53;1754353;81;21144;-79
2022/02/03 06:54:52;;;;;;;16.42;11.75;;;;;;;2.87;93.13;99382.27;1746574;81;21221;-79
2022/02/03 06:57:54;;;;;;;16.05;12.28;;;;;;;2.79;92.82;99395.19;1747765;80;21209;-78
2022/02/03 07:01:05;;;;;;;16.17;12.18;;;;;;;2.76;92.99;99398.17;1740048;80;21293;-78
2022/02/03 07:04:16;;;;;;;19.23;14.38;;;;;;;2.79;93.14;99394.69;1739769;81;21341;-79
2022/02/03 07:07:19;;;;;;;25.97;17.40;;;;;;;2.87;93.20;99391.72;1737188;82;21274;-79
2022/02/03 07:10:21;;;;;;;25.50;18.67;;;;;;;2.89;93.01;99397.34;1746759;81;21194;-80
2022/02/03 07:13:28;;;;;;;30.82;21.27;;;;;;;2.95;92.93;99395.38;1751752;81;21223;-79
2022/02/03 07:16:45;;;;;;;32.48;22.37;;;;;;;2.99;92.63;99391.89;1744332;81;21699;-79
2022/02/03 07:19:47;;;;;;;29.55;20.92;;;;;;;3.02;92.40;99405.11;1749633;81;21173;-79
2022/02/03 07:22:50;;;;;;;33.10;22.65;;;;;;;3.04;92.22;99399.04;1744759;81;21627;-79
2022/02/03 07:25:55;;;;;;;32.48;22.20;;;;;;;3.02;92.07;99409.16;1746223;81;21193;-79
2022/02/03 07:29:01;;;;;;;39.60;25.97;;;;;;;3.07;92.21;99410.91;1745859;81;21196;-79
2022/02/03 07:32:07;;;;;;;39.78;26.20;;;;;;;3.07;91.94;99416.31;1745615;81;21223;-79
2022/02/03 07:35:13;;;;;;;39.85;27.95;;;;;;;3.10;91.76;99415.98;1752010;80;21330;-79
2022/02/03 07:38:19;;;;;;;46.10;31.87;;;;;;;3.10;91.87;99411.94;1755285;81;21330;-80
2022/02/03 07:41:23;;;;;;;40.30;27.37;;;;;;;3.18;91.93;99419.30;1749086;81;21279;-79
2022/02/03 07:44:28;;;;;;;48.15;32.30;;;;;;;3.28;91.91;99422.29;1749057;80;21286;-79
2022/02/03 07:47:35;;;;;;;55.50;36.68;;;;;;;3.35;91.48;99425.25;1748309;80;21338;-80
2022/02/03 07:50:39;;;;;;;52.23;35.15;;;;;;;3.41;91.34;99431.91;1758783;80;21291;-79
2022/02/03 07:53:44;;;;;;;58.25;37.67;;;;;;;3.46;90.97;99424.19;1745215;80;21362;-80
2022/02/03 07:56:50;;;;;;;54.73;37.05;;;;;;;3.52;90.56;99424.92;1750029;81;21347;-79
2022/02/03 07:59:55;;;;;;;55.98;39.10;;;;;;;3.56;90.15;99424.96;1741955;80;21188;-79
2022/02/03 08:03:06;;;;;;;54.98;38.33;;;;;;;3.62;90.02;99428.91;1746174;81;21306;-80
2022/02/03 08:06:15;;;;;;;63.05;42.27;;;;;;;3.72;89.79;99417.03;1746573;80;21271;-80
2022/02/03 08:09:26;;;;;;;64.17;42.03;;;;;;;3.81;89.39;99416.11;1743073;81;21337;-80
2022/02/03 08:12:32;;;;;;;72.78;47.05;;;;;;;3.88;88.92;99418.18;1749230;80;22237;-80
2022/02/03 08:15:39;;;;;;;62.20;40.03;;;;;;;3.89;88.50;99419.88;1746100;80;21759;-79
2022/02/03 08:18:49;;;;;;;64.75;41.65;;;;;;;3.91;88.28;99426.00;1768627;79;21203;-79
2022/02/03 08:22:01;;;;;;;66.12;43.90;;;;;;;3.93;87.97;99431.59;1765650;80;21347;-79
2022/02/03 08:25:16;;;;;;;78.22;50.08;;;;;;;3.97;87.86;99432.13;1766698;79;21175;-79
2022/02/03 08:32:02;;;;;;;96.47;53.20;;;;;;;3.96;87.33;99425.03;1740495;82;21228;-79
2022/02/03 08:41:16;;;;;;;116.70;63.23;;;;;;;3.93;87.42;99427.52;1740824;80;22478;-78
2022/02/03 08:44:21;;;;;;;111.30;63.80;;;;;;;4.00;87.53;99423.69;1745025;81;21189;-80
2022/02/03 08:47:27;;;;;;;128.18;69.87;;;;;;;4.07;87.37;99434.25;1740744;81;21293;-80
2022/02/03 08:50:34;;;;;;;135.78;73.28;;;;;;;4.07;86.75;99439.66;1733476;80;21603;-78
2022/02/03 08:53:44;;;;;;;115.92;66.02;;;;;;;4.02;86.75;99441.98;1743235;81;21354;-79
2022/02/03 08:57:01;;;;;;;121.55;66.77;;;;;;;4.02;86.96;99448.75;1744233;80;21287;-79
2022/02/03 09:37:36;;;;;;;96.72;54.73;;;;;;;3.30;90.32;99429.77;1749500;80;21328;-81
2022/02/03 09:41:27;;;;;;;91.30;51.20;;;;;;;3.36;90.63;99426.10;1765515;79;21195;-81
2022/02/03 09:51:10;;;;;;;80.95;44.13;;;;;;;3.65;90.18;99448.89;1772309;79;21298;-81
2022/02/03 10:00:03;;;;;;;92.62;47.58;;;;;;;3.65;90.19;99442.13;1744718;82;21380;-78
2022/02/03 10:03:13;;;;;;;85.35;45.60;;;;;;;3.71;90.33;99435.59;1738339;81;21200;-79
2022/02/03 10:06:26;;;;;;;92.47;46.40;;;;;;;3.81;90.36;99430.11;1757701;80;21212;-79
2022/02/03 10:09:50;;;;;;;91.50;48.35;;;;;;;3.87;90.10;99435.42;1755555;80;21874;-79
2022/02/03 10:12:56;;;;;;;77.70;43.78;;;;;;;3.81;89.64;99433.69;1748872;80;22225;-79
2022/02/03 10:16:14;;;;;;;77.75;43.15;;;;;;;3.78;89.79;99438.55;1753888;81;21642;-79
2022/02/03 10:19:21;;;;;;;71.92;41.80;;;;;;;3.75;89.99;99441.55;1743009;81;21933;-80
2022/02/03 10:22:29;;;;;;;66.07;40.28;;;;;;;3.69;90.06;99451.14;1758354;81;21317;-80
2022/02/03 10:25:38;;;;;;;63.87;37.33;;;;;;;3.65;90.26;99441.62;1734107;81;21144;-81
2022/02/03 10:28:44;;;;;;;59.67;35.85;;;;;;;3.55;90.47;99441.69;1755872;80;21208;-81
2022/02/03 10:31:51;;;;;;;60.23;36.28;;;;;;;3.51;90.89;99448.91;1753248;81;21385;-80
2022/02/03 10:34:58;;;;;;;65.08;37.38;;;;;;;3.51;91.20;99441.64;1750704;80;21303;-80
2022/02/03 10:42:02;;;;;;;43.23;27.32;;;;;;;3.58;91.26;99444.10;1754136;80;21310;-80
2022/02/03 10:48:51;;;;;;;38.50;25.23;;;;;;;3.62;91.16;99444.63;1720952;81;21416;-80
2022/02/03 10:51:51;;;;;;;39.08;24.40;;;;;;;3.64;91.20;99440.44;1699643;81;21297;-80
2022/02/03 10:55:02;;;;;;;34.92;21.42;;;;;;;3.65;91.28;99452.95;1724301;81;21556;-80
2022/02/03 11:02:03;;;;;;;30.37;19.73;;;;;;;3.62;91.32;99441.92;1745334;80;21227;-80
2022/02/03 11:08:34;;;;;;;33.00;20.80;;;;;;;3.61;91.23;99438.88;1740576;80;21235;-80
2022/02/03 11:11:41;;;;;;;34.67;22.02;;;;;;;3.60;91.40;99431.77;1758446;81;21775;-80
2022/02/03 11:14:41;;;;;;;34.18;22.00;;;;;;;3.62;91.49;99439.22;1725759;81;21218;-79
2022/02/03 11:17:47;;;;;;;34.98;21.70;;;;;;;3.64;91.54;99440.44;1731425;80;21222;-80
2022/02/03 11:20:53;;;;;;;34.65;21.73;;;;;;;3.65;91.50;99448.89;1730897;80;21310;-78
2022/02/03 11:24:04;;;;;;;43.38;25.85;;;;;;;3.65;91.61;99442.13;1716593;82;21418;-80
2022/02/03 11:27:20;;;;;;;37.90;24.32;;;;;;;3.63;91.68;99434.18;1717105;81;21336;-79
2022/02/03 11:31:02;;;;;;;41.80;24.57;;;;;;;3.57;91.72;99440.17;1728786;82;21364;-79
2022/02/03 11:44:21;;;;;;;36.28;22.37;;;;;;;3.61;91.69;99437.52;1766130;80;21767;-79
2022/02/03 11:47:55;;;;;;;32.75;17.82;;;;;;;3.64;91.56;99442.64;1770123;80;21267;-80
2022/02/03 11:54:46;;;;;;;38.65;23.42;;;;;;;3.74;91.26;99450.68;1752182;81;21298;-79
2022/02/03 11:57:44;;;;;;;40.67;21.45;;;;;;;3.70;91.04;99447.42;1772803;80;21727;-79
2022/02/03 12:01:15;;;;;;;41.90;23.05;;;;;;;3.67;91.29;99447.75;1753331;81;21208;-79
2022/02/03 12:07:34;;;;;;;39.42;21.33;;;;;;;3.69;91.35;99455.20;1753352;81;21168;-79
2022/02/03 12:17:31;;;;;;;49.70;26.45;;;;;;;3.66;91.41;99475.77;1669614;85;21649;-79
2022/02/03 12:20:50;;;;;;;50.00;27.60;;;;;;;3.62;91.71;99479.78;1725134;83;21180;-79
2022/02/03 12:23:59;;;;;;;58.50;29.70;;;;;;;3.49;92.03;99483.37;1725063;83;21283;-80
2022/02/03 12:27:08;;;;;;;52.67;29.35;;;;;;;3.36;92.62;99493.18;1726607;82;21933;-80
2022/02/03 12:30:24;;;;;;;61.37;32.10;;;;;;;3.25;93.23;99506.40;1715173;83;22534;-80
2022/02/03 12:40:05;;;;;;;64.72;31.75;;;;;;;3.09;94.62;99502.11;1728340;82;21654;-79
2022/02/03 12:43:25;;;;;;;67.65;32.53;;;;;;;3.09;94.70;99500.77;1734507;81;21806;-79
2022/02/03 12:46:19;;;;;;;64.53;32.75;;;;;;;3.10;94.64;99498.41;1781751;80;21846;-78
2022/02/03 12:49:30;;;;;;;57.75;31.15;;;;;;;3.10;94.59;99505.66;1756650;80;21700;-78
2022/02/03 12:52:36;;;;;;;75.75;36.65;;;;;;;3.10;94.62;99505.66;1752432;81;21321;-78
2022/02/03 12:55:51;;;;;;;64.90;31.93;;;;;;;3.07;94.73;99502.27;1764673;81;21862;-79
2022/02/03 12:59:02;;;;;;;58.30;30.40;;;;;;;3.07;94.80;99502.27;1739206;81;21306;-79
2022/02/03 13:02:08;;;;;;;66.55;33.00;;;;;;;3.07;94.78;99509.03;1721850;82;21838;-78
2022/02/03 13:05:13;;;;;;;56.30;30.68;;;;;;;3.08;94.79;99504.47;1735410;82;21153;-79
2022/02/03 13:08:21;;;;;;;58.92;31.95;;;;;;;3.07;94.84;99503.63;1734393;82;21302;-79
2022/02/03 13:11:37;;;;;;;71.07;36.00;;;;;;;3.05;94.79;99504.75;1732487;82;21318;-78
2022/02/03 13:14:45;;;;;;;66.60;33.25;;;;;;;3.00;94.87;99505.20;1733416;82;21687;-79
2022/02/03 13:17:52;;;;;;;84.47;39.33;;;;;;;2.96;94.99;99504.28;1731974;82;22373;-78
2022/02/03 13:21:05;;;;;;;90.03;39.42;;;;;;;2.90;95.30;99504.88;1721488;82;21354;-78
2022/02/03 13:31:04;;;;;;;81.78;37.38;;;;;;;2.66;95.92;99505.37;1713407;82;21338;-78
2022/02/03 13:34:16;;;;;;;83.30;38.08;;;;;;;2.57;96.27;99504.39;1733391;82;21361;-78
2022/02/03 13:37:21;;;;;;;88.12;39.30;;;;;;;2.54;96.74;99503.33;1733537;82;21345;-78
2022/02/03 13:40:26;;;;;;;98.27;41.28;;;;;;;2.52;97.11;99502.62;1734287;82;21905;-78
2022/02/03 14:17:12;;;;;;;388.70;114.35;;;;;;;1.95;100.00;99525.44;1704297;84;21233;-78
2022/02/03 14:29:26;;;;;;;267.18;90.07;;;;;;;1.73;100.00;99522.98;1765017;81;21315;-79
2022/02/03 14:32:36;;;;;;;184.55;63.95;;;;;;;1.65;100.00;99529.09;1731340;82;21284;-78
2022/02/03 14:35:38;;;;;;;168.93;55.28;;;;;;;1.61;100.00;99530.86;1708423;84;21676;-78
2022/02/03 14:41:51;;;;;;;154.75;50.65;;;;;;;1.49;100.00;99539.53;1708474;84;21527;-78
2022/02/03 14:44:58;;;;;;;143.85;47.80;;;;;;;1.45;100.00;99544.34;1708413;84;21332;-79
2022/02/03 14:48:05;;;;;;;158.07;51.20;;;;;;;1.43;100.00;99557.61;1708062;83;21335;-78
2022/02/03 14:51:13;;;;;;;130.25;48.02;;;;;;;1.44;100.00;99562.84;1707369;84;21791;-81
2022/02/03 15:00:57;;;;;;;114.22;45.00;;;;;;;1.49;100.00;99578.11;1707983;84;21197;-78
2022/02/03 15:04:05;;;;;;;112.72;42.20;;;;;;;1.48;100.00;99580.95;1707503;84;21324;-79
2022/02/03 15:07:11;;;;;;;101.90;39.88;;;;;;;1.50;100.00;99577.62;1707636;84;21747;-78
2022/02/03 15:10:40;;;;;;;96.63;38.60;;;;;;;1.53;100.00;99580.05;1707759;84;21304;-78
2022/02/03 15:13:33;;;;;;;90.42;37.00;;;;;;;1.55;100.00;99576.71;1708141;84;21879;-79
2022/02/03 15:16:37;;;;;;;81.10;37.48;;;;;;;1.61;100.00;99585.62;1707459;84;21870;-79
2022/02/03 15:19:45;;;;;;;95.50;39.92;;;;;;;1.65;100.00;99583.02;1727557;83;21819;-79
2022/02/03 15:22:51;;;;;;;92.67;40.52;;;;;;;1.68;100.00;99588.61;1728398;83;21307;-78
2022/02/03 15:25:56;;;;;;;106.72;43.48;;;;;;;1.71;100.00;99589.20;1728313;83;21315;-79
2022/02/03 15:29:02;;;;;;;92.90;39.00;;;;;;;1.75;100.00;99590.63;1726762;83;21299;-78
2022/02/03 15:32:08;;;;;;;92.72;40.45;;;;;;;1.82;100.00;99590.92;1706739;84;21191;-78
2022/02/03 15:35:42;;;;;;;100.97;41.65;;;;;;;1.86;100.00;99589.66;1701876;83;21344;-79
2022/02/03 15:38:47;;;;;;;91.37;41.10;;;;;;;1.87;100.00;99582.41;1702982;84;21347;-78
2022/02/03 15:41:53;;;;;;;88.90;40.35;;;;;;;1.88;100.00;99586.81;1702267;84;21389;-78
2022/02/03 15:44:59;;;;;;;89.65;40.50;;;;;;;1.84;100.00;99581.36;1702465;84;21304;-79
2022/02/03 16:17:57;;;;;;;53.52;24.70;;;;;;;1.67;100.00;99615.22;1720419;82;21862;-80
2022/02/03 16:21:15;;;;;;;44.98;22.45;;;;;;;1.65;100.00;99626.15;1705960;84;21348;-80
2022/02/03 16:51:04;;;;;;;32.33;17.40;;;;;;;1.57;100.00;99631.36;1722159;83;21290;-79
2022/02/03 16:54:13;;;;;;;34.33;18.95;;;;;;;1.61;100.00;99631.45;1723139;83;21346;-79
2022/02/03 16:57:20;;;;;;;34.30;20.45;;;;;;;1.63;100.00;99634.84;1723696;82;21311;-78
2022/02/03 17:00:24;;;;;;;34.85;19.52;;;;;;;1.58;100.00;99633.05;1717986;83;21898;-78
2022/02/03 17:03:30;;;;;;;34.15;20.30;;;;;;;1.51;100.00;99630.06;1713678;81;21348;-78
2022/02/03 17:06:36;;;;;;;31.75;18.87;;;;;;;1.46;100.00;99633.66;1703551;84;21347;-79
2022/02/03 17:09:42;;;;;;;31.62;18.98;;;;;;;1.42;100.00;99627.32;1703523;84;21863;-78
2022/02/03 17:12:47;;;;;;;32.30;19.70;;;;;;;1.37;100.00;99624.18;1702800;84;21933;-78
2022/02/03 17:15:54;;;;;;;32.38;17.40;;;;;;;1.34;100.00;99626.64;1704921;84;21840;-78
2022/02/03 17:18:59;;;;;;;29.32;17.37;;;;;;;1.34;100.00;99627.13;1714810;83;21179;-78
2022/02/03 17:22:04;;;;;;;27.52;16.75;;;;;;;1.31;100.00;99622.85;1693251;84;21797;-78
2022/02/03 17:25:15;;;;;;;28.23;16.75;;;;;;;1.30;100.00;99613.56;1703837;84;21310;-78
2022/02/03 17:28:23;;;;;;;27.73;16.65;;;;;;;1.30;100.00;99615.77;1702359;83;21271;-78
2022/02/03 18:11:49;;;;;;;28.55;18.30;;;;;;;1.46;98.04;99605.36;1685740;85;21380;-78
2022/02/03 18:31:20;;;;;;;35.25;21.50;;;;;;;1.21;98.97;99610.68;1665236;85;21215;-79
2022/02/03 18:51:26;;;;;;;31.50;19.40;;;;;;;1.22;99.06;99604.33;1675026;85;21303;-79
2022/02/03 18:54:42;;;;;;;30.02;16.82;;;;;;;1.24;99.15;99607.73;1674109;85;21366;-80
2022/02/03 18:57:47;;;;;;;30.43;16.62;;;;;;;1.30;99.24;99604.98;1675465;85;21837;-80
2022/02/03 19:01:15;;;;;;;36.15;20.52;;;;;;;1.32;99.00;99604.84;1715833;82;21351;-79
2022/02/03 19:12:04;;;;;;;30.70;19.17;;;;;;;1.33;98.66;99597.14;1732555;82;21812;-79
2022/02/03 19:14:34;;;;;;;32.93;20.60;;;;;;;1.33;98.53;99606.57;1733194;82;21270;-79
2022/02/03 20:08:10;;;;;;;44.50;26.57;;;;;;;1.38;98.88;99613.75;1734711;82;21198;-80
2022/02/03 20:11:09;;;;;;;40.03;22.52;;;;;;;1.44;98.77;99620.80;1733146;82;21336;-80
2022/02/03 20:14:16;;;;;;;43.78;23.62;;;;;;;1.49;98.57;99617.70;1734486;82;21339;-79
2022/02/03 20:17:22;;;;;;;50.50;27.65;;;;;;;1.50;98.36;99612.66;1711757;82;21863;-80
2022/02/03 20:20:29;;;;;;;47.30;26.73;;;;;;;1.47;98.13;99611.10;1741911;81;21804;-79
2022/02/03 20:23:42;;;;;;;49.58;28.57;;;;;;;1.47;98.14;99611.10;1763478;81;21177;-79
2022/02/03 20:26:45;;;;;;;43.78;25.32;;;;;;;1.47;98.09;99615.64;1764599;81;21669;-79
2022/02/03 20:29:54;;;;;;;50.63;28.90;;;;;;;1.46;98.02;99619.33;1760154;81;21323;-79
2022/02/03 20:32:59;;;;;;;52.65;28.77;;;;;;;1.45;98.09;99614.91;1719175;81;21306;-78
2022/02/03 20:36:04;;;;;;;54.13;29.92;;;;;;;1.47;98.15;99618.34;1730397;82;21820;-79
2022/02/03 20:39:11;;;;;;;51.98;29.35;;;;;;;1.46;98.19;99615.29;1735441;82;21245;-78
2022/02/03 20:42:16;;;;;;;47.13;26.90;;;;;;;1.47;98.19;99620.53;1734796;82;21352;-78
2022/02/03 20:45:22;;;;;;;47.43;27.80;;;;;;;1.49;98.29;99621.73;1734033;81;21779;-79
2022/02/03 20:48:29;;;;;;;62.05;31.73;;;;;;;1.49;98.26;99620.39;1734345;82;21689;-80
2022/02/03 20:51:35;;;;;;;56.33;31.15;;;;;;;1.44;98.27;99618.09;1733774;82;21312;-79
2022/02/03 20:54:40;;;;;;;60.78;31.30;;;;;;;1.37;98.59;99618.80;1732345;82;21205;-80
2022/02/03 20:57:46;;;;;;;57.38;30.25;;;;;;;1.34;98.90;99616.36;1734090;82;21319;-80
2022/02/03 21:01:00;;;;;;;58.75;29.20;;;;;;;1.28;99.15;99613.71;1733750;82;21373;-79
2022/02/03 21:04:26;;;;;;;61.13;32.17;;;;;;;1.24;99.49;99623.05;1733991;82;21319;-79
2022/02/03 21:07:19;;;;;;;60.40;31.95;;;;;;;1.21;99.79;99624.64;1733787;82;21356;-79
2022/02/03 21:10:31;;;;;;;63.75;34.60;;;;;;;1.18;100.00;99632.52;1733608;82;21343;-78
2022/02/03 21:13:34;;;;;;;50.28;27.45;;;;;;;1.16;100.00;99631.78;1733132;82;21702;-79
2022/02/03 21:16:42;;;;;;;63.10;32.65;;;;;;;1.19;100.00;99630.67;1732575;82;21276;-78
2022/02/03 21:19:47;;;;;;;67.47;34.60;;;;;;;1.25;100.00;99636.37;1718502;83;21326;-79
2022/02/03 21:22:52;;;;;;;70.80;34.65;;;;;;;1.27;100.00;99635.77;1717859;83;21326;-79
2022/02/03 21:25:59;;;;;;;59.40;30.12;;;;;;;1.30;100.00;99633.77;1717972;83;21353;-79
2022/02/03 21:29:05;;;;;;;63.45;32.95;;;;;;;1.31;100.00;99636.82;1718315;83;21318;-79
2022/02/03 21:32:10;;;;;;;68.67;34.80;;;;;;;1.31;100.00;99637.67;1726880;81;21375;-79
2022/02/03 21:35:16;;;;;;;78.80;37.00;;;;;;;1.32;100.00;99634.48;1767545;81;21350;-78
2022/02/03 21:38:24;;;;;;;74.37;38.30;;;;;;;1.33;100.00;99630.33;1799698;79;21181;-79
2022/02/03 21:41:30;;;;;;;89.60;37.67;;;;;;;1.32;100.00;99622.36;1772387;81;21197;-79
2022/02/03 21:44:35;;;;;;;84.67;40.43;;;;;;;1.28;100.00;99630.72;1766103;81;21196;-79
2022/02/03 21:47:42;;;;;;;88.82;42.62;;;;;;;1.25;100.00;99629.63;1775310;79;21314;-79
2022/02/03 21:50:49;;;;;;;90.65;42.08;;;;;;;1.21;100.00;99631.38;1706349;84;21303;-79
2022/02/03 21:53:54;;;;;;;90.70;40.12;;;;;;;1.14;100.00;99632.42;1705491;84;21425;-79
2022/02/03 21:56:59;;;;;;;121.07;47.15;;;;;;;1.09;100.00;99638.70;1705330;84;21587;-79
2022/02/03 22:00:04;;;;;;;101.90;46.35;;;;;;;1.06;100.00;99636.26;1704725;84;21311;-79
2022/02/03 22:03:09;;;;;;;102.17;45.20;;;;;;;1.08;100.00;99637.46;1741340;81;22632;-79
2022/02/03 22:06:15;;;;;;;101.55;43.75;;;;;;;1.06;100.00;99641.64;1768214;81;21183;-78
2022/02/03 22:09:22;;;;;;;101.07;44.30;;;;;;;1.07;100.00;99642.50;1768404;81;21303;-78
2022/02/03 22:12:27;;;;;;;101.78;43.30;;;;;;;1.04;100.00;99642.28;1767852;81;21315;-79
2022/02/03 22:15:28;;;;;;;116.67;45.83;;;;;;;1.01;100.00;99642.04;1767355;81;21331;-78
2022/02/03 22:18:34;;;;;;;110.65;47.33;;;;;;;1.00;100.00;99643.03;1745351;81;21348;-79
2022/02/03 22:25:07;;;;;;;108.92;48.13;;;;;;;1.01;100.00;99634.45;1731586;83;21264;-78
2022/02/03 22:51:00;;;;;;;29.27;19.77;;;;;;;0.71;100.00;99642.83;1719599;83;21879;-79
2022/02/03 22:54:07;;;;;;;28.85;19.92;;;;;;;0.67;100.00;99637.34;1719474;83;21885;-78
2022/02/03 22:57:13;;;;;;;29.82;20.77;;;;;;;0.65;100.00;99635.25;1720641;82;21196;-78
2022/02/03 23:00:22;;;;;;;28.32;19.37;;;;;;;0.62;100.00;99636.88;1720725;83;21651;-78
2022/02/03 23:03:27;;;;;;;31.65;20.68;;;;;;;0.61;100.00;99640.56;1720995;83;21169;-79
2022/02/03 23:06:32;;;;;;;35.75;24.63;;;;;;;0.59;100.00;99645.20;1721002;83;21308;-78
2022/02/03 23:16:04;;;;;;;31.73;22.73;;;;;;;0.54;100.00;99647.42;1719612;83;21236;-80
2022/02/03 23:19:36;;;;;;;36.35;24.70;;;;;;;0.52;100.00;99644.02;1719693;81;21200;-81
2022/02/03 23:22:24;;;;;;;33.38;23.85;;;;;;;0.50;100.00;99655.39;1720948;83;21310;-81
2022/02/03 23:25:30;;;;;;;38.25;23.25;;;;;;;0.47;99.98;99647.09;1719866;83;21220;-80
2022/02/03 23:28:35;;;;;;;36.28;24.52;;;;;;;0.47;100.00;99651.59;1720319;83;21347;-80
2022/02/03 23:32:01;;;;;;;38.88;26.48;;;;;;;0.47;99.95;99652.48;1720945;83;21386;-80
2022/02/03 23:35:03;;;;;;;38.15;25.08;;;;;;;0.43;99.49;99646.98;1727309;82;21154;-80
2022/02/03 23:44:31;;;;;;;34.92;24.00;;;;;;;0.36;99.21;99671.33;1733489;82;21343;-79
